Time,TemperatureF,DewpointF,PressureIn,WindDirection,WindDirectionDegrees,WindSpeedMPH,WindSpeedGustMPH,Humidity,HourlyPrecipIn,Conditions,Clouds,dailyrainin,SolarRadiationWatts/m^2,SoftwareType,DateUTC
2013-05-07 00:12:00,49.0,22.0,-100.00,East,100,16.0,28.0,34,0.00,,,0.00,0.000000,,2013-05-07 06:12:00,
2013-05-07 00:22:00,49.0,22.0,-100.00,East,100,16.0,28.0,34,0.00,,,0.00,0.000000,,2013-05-07 06:22:00,
2013-05-07 00:32:00,49.0,22.0,-100.00,East,100,16.0,28.0,34,0.00,,,0.00,0.000000,,2013-05-07 06:32:00,
2013-05-07 00:41:00,49.0,22.0,-100.00,East,100,16.0,28.0,34,0.00,,,0.00,0.000000,,2013-05-07 06:41:00,
2013-05-07 01:11:00,50.0,25.0,-100.00,East,88,16.0,26.0,37,-99.99,,,0.00,0.000000,,2013-05-07 07:11:00,
2013-05-07 01:22:00,50.0,25.0,-100.00,East,88,16.0,26.0,37,-99.99,,,0.00,0.000000,,2013-05-07 07:22:00,
2013-05-07 01:31:00,50.0,25.0,-100.00,East,88,16.0,26.0,37,-99.99,,,0.00,0.000000,,2013-05-07 07:31:00,
2013-05-07 01:52:00,50.0,24.0,-100.00,East,82,17.0,28.0,36,-99.99,,,0.00,0.000000,,2013-05-07 07:52:00,
2013-05-07 02:11:00,50.0,24.0,-100.00,East,82,17.0,28.0,36,-99.99,,,0.00,0.000000,,2013-05-07 08:11:00,
2013-05-07 02:21:00,50.0,24.0,-100.00,East,82,17.0,28.0,36,-99.99,,,0.00,0.000000,,2013-05-07 08:21:00,
2013-05-07 02:31:00,50.0,24.0,-100.00,East,82,17.0,28.0,36,-99.99,,,0.00,0.000000,,2013-05-07 08:31:00,
2013-05-07 02:41:00,50.0,24.0,-100.00,East,82,17.0,28.0,36,-99.99,,,0.00,0.000000,,2013-05-07 08:41:00,
2013-05-07 03:22:00,50.0,24.0,-100.00,East,89,13.0,27.0,36,-99.99,,,0.00,0.000000,,2013-05-07 09:22:00,
2013-05-07 04:12:00,50.0,21.0,-100.00,ESE,116,14.0,19.0,32,-99.99,,,0.00,0.000000,,2013-05-07 10:12:00,
2013-05-07 04:23:00,50.0,21.0,-100.00,ESE,116,14.0,19.0,32,-99.99,,,0.00,0.000000,,2013-05-07 10:23:00,
2013-05-07 05:22:00,52.0,22.0,-100.00,South,182,15.0,22.0,31,-99.99,,,0.00,0.000000,,2013-05-07 11:22:00,
2013-05-07 05:52:00,50.0,23.0,-100.00,SSW,204,15.0,22.0,35,-99.99,,,0.00,0.000000,,2013-05-07 11:52:00,
2013-05-07 06:21:00,50.0,23.0,-100.00,SSW,204,15.0,22.0,35,-99.99,,,0.00,0.000000,,2013-05-07 12:21:00,
2013-05-07 06:41:00,50.0,23.0,-100.00,SSW,204,15.0,22.0,35,-99.99,,,0.00,0.000000,,2013-05-07 12:41:00,
2013-05-07 07:21:00,51.0,24.0,-100.00,SW,230,12.0,19.0,35,-99.99,,,0.00,61.000000,,2013-05-07 13:21:00,
2013-05-07 07:32:00,51.0,24.0,-100.00,SW,230,12.0,19.0,35,-99.99,,,0.00,61.000000,,2013-05-07 13:32:00,
2013-05-07 07:52:00,51.0,26.0,-100.00,SW,226,10.0,18.0,38,0.00,,,0.00,256.000000,,2013-05-07 13:52:00,
2013-05-07 08:11:00,51.0,26.0,-100.00,SW,226,10.0,18.0,38,0.00,,,0.00,256.000000,,2013-05-07 14:11:00,
2013-05-07 08:21:00,51.0,26.0,-100.00,SW,226,10.0,18.0,38,0.00,,,0.00,256.000000,,2013-05-07 14:21:00,
2013-05-07 08:42:00,51.0,26.0,-100.00,SW,226,10.0,18.0,38,0.00,,,0.00,256.000000,,2013-05-07 14:42:00,
2013-05-07 08:52:00,59.0,23.0,-100.00,SE,138,4.0,12.0,25,0.00,,,0.00,501.000000,,2013-05-07 14:52:00,
2013-05-07 09:12:00,59.0,23.0,-100.00,SE,138,4.0,12.0,25,0.00,,,0.00,501.000000,,2013-05-07 15:12:00,
2013-05-07 09:21:00,59.0,23.0,-100.00,SE,138,4.0,12.0,25,0.00,,,0.00,501.000000,,2013-05-07 15:21:00,
2013-05-07 09:33:00,59.0,23.0,-100.00,SE,138,4.0,12.0,25,0.00,,,0.00,501.000000,,2013-05-07 15:33:00,
2013-05-07 09:42:00,59.0,23.0,-100.00,SE,138,4.0,12.0,25,0.00,,,0.00,501.000000,,2013-05-07 15:42:00,
2013-05-07 13:11:00,57.0,27.0,-100.00,South,186,13.0,28.0,32,-99.99,,,0.00,1111.000000,,2013-05-07 19:11:00,
2013-05-07 13:21:00,57.0,27.0,-100.00,South,186,13.0,28.0,32,-99.99,,,0.00,1111.000000,,2013-05-07 19:21:00,
2013-05-07 13:32:00,57.0,27.0,-100.00,South,186,13.0,28.0,32,-99.99,,,0.00,1111.000000,,2013-05-07 19:32:00,
2013-05-07 13:41:00,57.0,27.0,-100.00,South,186,13.0,28.0,32,-99.99,,,0.00,1111.000000,,2013-05-07 19:41:00,
2013-05-07 13:51:00,57.0,27.0,-100.00,South,186,13.0,28.0,32,-99.99,,,0.00,1111.000000,,2013-05-07 19:51:00,
2013-05-07 14:11:00,56.0,26.0,-100.00,West,279,15.0,29.0,31,0.00,,,0.00,1088.000000,,2013-05-07 20:11:00,
2013-05-07 14:21:00,56.0,26.0,-100.00,West,279,15.0,29.0,31,0.00,,,0.00,1088.000000,,2013-05-07 20:21:00,
2013-05-07 14:32:00,56.0,26.0,-100.00,West,279,15.0,29.0,31,0.00,,,0.00,1088.000000,,2013-05-07 20:32:00,
2013-05-07 14:41:00,56.0,26.0,-100.00,West,279,15.0,29.0,31,0.00,,,0.00,1088.000000,,2013-05-07 20:41:00,
2013-05-07 14:51:00,56.0,26.0,-100.00,West,279,15.0,29.0,31,0.00,,,0.00,1088.000000,,2013-05-07 20:51:00,
2013-05-07 14:52:00,58.0,28.0,-100.00,SSW,203,12.0,27.0,31,0.00,,,0.00,1061.000000,,2013-05-07 20:52:00,
2013-05-07 15:11:00,58.0,28.0,-100.00,SSW,203,12.0,27.0,31,0.00,,,0.00,1061.000000,,2013-05-07 21:11:00,
2013-05-07 15:21:00,58.0,28.0,-100.00,SSW,203,12.0,27.0,31,0.00,,,0.00,1061.000000,,2013-05-07 21:21:00,
2013-05-07 15:32:00,58.0,28.0,-100.00,SSW,203,12.0,27.0,31,0.00,,,0.00,1061.000000,,2013-05-07 21:32:00,
2013-05-07 15:42:00,58.0,28.0,-100.00,SSW,203,12.0,27.0,31,0.00,,,0.00,1061.000000,,2013-05-07 21:42:00,
2013-05-07 15:52:00,59.0,30.0,-100.00,South,188,10.0,21.0,33,0.00,,,0.00,838.000000,,2013-05-07 21:52:00,
2013-05-07 16:22:00,59.0,30.0,-100.00,South,188,10.0,21.0,33,0.00,,,0.00,838.000000,,2013-05-07 22:22:00,
2013-05-07 16:32:00,59.0,30.0,-100.00,South,188,10.0,21.0,33,0.00,,,0.00,838.000000,,2013-05-07 22:32:00,
2013-05-07 16:42:00,59.0,30.0,-100.00,South,188,10.0,21.0,33,0.00,,,0.00,838.000000,,2013-05-07 22:42:00,
2013-05-07 16:52:00,60.0,29.0,-100.00,SSW,203,10.0,25.0,31,0.00,,,0.00,908.000000,,2013-05-07 22:52:00,
2013-05-07 17:12:00,60.0,29.0,-100.00,SSW,203,10.0,25.0,31,0.00,,,0.00,908.000000,,2013-05-07 23:12:00,
2013-05-07 17:21:00,60.0,29.0,-100.00,SSW,203,10.0,25.0,31,0.00,,,0.00,908.000000,,2013-05-07 23:21:00,
2013-05-07 17:32:00,60.0,29.0,-100.00,SSW,203,10.0,25.0,31,0.00,,,0.00,908.000000,,2013-05-07 23:32:00,
2013-05-07 17:41:00,60.0,29.0,-100.00,SSW,203,10.0,25.0,31,0.00,,,0.00,908.000000,,2013-05-07 23:41:00,
2013-05-07 18:11:00,58.0,29.0,-100.00,SSW,200,10.0,26.0,33,0.00,,,0.00,454.000000,,2013-05-08 00:11:00,
2013-05-07 18:21:00,58.0,29.0,-100.00,SSW,200,10.0,26.0,33,0.00,,,0.00,454.000000,,2013-05-08 00:21:00,
2013-05-07 18:32:00,58.0,29.0,-100.00,SSW,200,10.0,26.0,33,0.00,,,0.00,454.000000,,2013-05-08 00:32:00,
2013-05-07 18:41:00,58.0,29.0,-100.00,SSW,200,10.0,26.0,33,0.00,,,0.00,454.000000,,2013-05-08 00:41:00,
2013-05-07 18:51:00,58.0,29.0,-100.00,SSW,200,10.0,26.0,33,0.00,,,0.00,454.000000,,2013-05-08 00:51:00,
2013-05-07 18:52:00,60.0,26.0,-100.00,WSW,247,11.0,26.0,27,0.00,,,0.00,302.000000,,2013-05-08 00:52:00,
2013-05-07 19:11:00,60.0,26.0,-100.00,WSW,247,11.0,26.0,27,0.00,,,0.00,302.000000,,2013-05-08 01:11:00,
2013-05-07 19:21:00,60.0,26.0,-100.00,WSW,247,11.0,26.0,27,0.00,,,0.00,302.000000,,2013-05-08 01:21:00,
2013-05-07 19:31:00,60.0,26.0,-100.00,WSW,247,11.0,26.0,27,0.00,,,0.00,302.000000,,2013-05-08 01:31:00,
2013-05-07 19:42:00,60.0,26.0,-100.00,WSW,247,11.0,26.0,27,0.00,,,0.00,302.000000,,2013-05-08 01:42:00,
2013-05-07 20:12:00,57.0,30.0,-100.00,WSW,239,15.0,29.0,35,0.00,,,0.00,188.000000,,2013-05-08 02:12:00,
2013-05-07 20:22:00,57.0,30.0,-100.00,WSW,239,15.0,29.0,35,0.00,,,0.00,188.000000,,2013-05-08 02:22:00,
2013-05-07 20:31:00,57.0,30.0,-100.00,WSW,239,15.0,29.0,35,0.00,,,0.00,188.000000,,2013-05-08 02:31:00,
2013-05-07 20:42:00,57.0,30.0,-100.00,WSW,239,15.0,29.0,35,0.00,,,0.00,188.000000,,2013-05-08 02:42:00,
2013-05-07 20:51:00,57.0,30.0,-100.00,WSW,239,15.0,29.0,35,0.00,,,0.00,188.000000,,2013-05-08 02:51:00,
2013-05-07 20:52:00,52.0,31.0,-100.00,SW,215,21.0,37.0,45,0.00,,,0.00,22.000000,,2013-05-08 02:52:00,
2013-05-07 21:11:00,52.0,31.0,-100.00,SW,215,21.0,37.0,45,0.00,,,0.00,22.000000,,2013-05-08 03:11:00,
2013-05-07 21:21:00,52.0,31.0,-100.00,SW,215,21.0,37.0,45,0.00,,,0.00,22.000000,,2013-05-08 03:21:00,
2013-05-07 21:32:00,52.0,31.0,-100.00,SW,215,21.0,37.0,45,0.00,,,0.00,22.000000,,2013-05-08 03:32:00,
2013-05-07 21:43:00,52.0,31.0,-100.00,SW,215,21.0,37.0,45,0.00,,,0.00,22.000000,,2013-05-08 03:43:00,
2013-05-07 21:52:00,49.0,32.0,-100.00,ENE,78,23.0,34.0,51,0.00,,,0.00,0.000000,,2013-05-08 03:52:00,
2013-05-07 22:13:00,49.0,32.0,-100.00,ENE,78,23.0,34.0,51,0.00,,,0.00,0.000000,,2013-05-08 04:13:00,
2013-05-07 22:22:00,49.0,32.0,-100.00,ENE,78,23.0,34.0,51,0.00,,,0.00,0.000000,,2013-05-08 04:22:00,
2013-05-07 22:33:00,49.0,32.0,-100.00,ENE,78,23.0,34.0,51,0.00,,,0.00,0.000000,,2013-05-08 04:33:00,
2013-05-07 22:42:00,49.0,32.0,-100.00,ENE,78,23.0,34.0,51,0.00,,,0.00,0.000000,,2013-05-08 04:42:00,
2013-05-07 22:52:00,46.0,31.0,-100.00,ESE,117,23.0,36.0,56,0.00,,,0.00,0.000000,,2013-05-08 04:52:00,
2013-05-07 23:12:00,46.0,31.0,-100.00,ESE,117,23.0,36.0,56,0.00,,,0.00,0.000000,,2013-05-08 05:12:00,
2013-05-07 23:22:00,46.0,31.0,-100.00,ESE,117,23.0,36.0,56,0.00,,,0.00,0.000000,,2013-05-08 05:22:00,
2013-05-07 23:32:00,46.0,31.0,-100.00,ESE,117,23.0,36.0,56,0.00,,,0.00,0.000000,,2013-05-08 05:32:00,
2013-05-07 23:42:00,46.0,31.0,-100.00,ESE,117,23.0,36.0,56,0.00,,,0.00,0.000000,,2013-05-08 05:42:00,